createdAt,value
2023-04-02T00:00:26.331Z,35.15
2023-04-02T00:00:57.780Z,35.32
2023-04-02T00:01:32.399Z,35.26
2023-04-02T00:02:03.975Z,35.41
2023-04-02T00:02:35.536Z,35.33
2023-04-02T00:03:07.117Z,35.30
2023-04-02T00:03:38.654Z,35.24
2023-04-02T00:04:10.217Z,35.34
2023-04-02T00:04:41.674Z,35.25
2023-04-02T00:05:13.139Z,35.19
2023-04-02T00:05:47.535Z,35.26
2023-04-02T00:06:19.012Z,35.32
2023-04-02T00:06:50.596Z,35.22
2023-04-02T00:07:21.980Z,35.25
2023-04-02T00:07:53.439Z,35.26
2023-04-02T00:08:25.064Z,35.14
2023-04-02T00:08:56.501Z,35.32
2023-04-02T00:09:27.921Z,35.32
2023-04-02T00:09:59.404Z,35.18
2023-04-02T00:10:30.786Z,35.17
2023-04-02T00:11:02.249Z,35.20
2023-04-02T00:11:33.676Z,35.18
2023-04-02T00:12:05.205Z,35.27
2023-04-02T00:12:36.709Z,35.31
2023-04-02T00:13:08.136Z,35.13
2023-04-02T00:13:41.195Z,35.19
2023-04-02T00:14:12.693Z,34.90
2023-04-02T00:14:44.085Z,35.01
2023-04-02T00:15:15.517Z,35.24
2023-04-02T00:15:46.980Z,35.17
2023-04-02T00:16:18.457Z,35.12
2023-04-02T00:16:50.013Z,35.14
2023-04-02T00:17:21.653Z,35.23
2023-04-02T00:17:53.256Z,35.18
2023-04-02T00:18:27.510Z,35.16
2023-04-02T00:18:59.092Z,35.11
2023-04-02T00:19:30.532Z,35.24
2023-04-02T00:20:02.000Z,35.01
2023-04-02T00:20:33.497Z,35.14
2023-04-02T00:21:04.919Z,35.06
2023-04-02T00:21:37.717Z,35.18
2023-04-02T00:22:10.212Z,35.14
2023-04-02T00:22:41.699Z,35.20
2023-04-02T00:23:13.117Z,35.21
2023-04-02T00:23:44.531Z,35.19
2023-04-02T00:24:15.983Z,35.10
2023-04-02T00:24:47.471Z,35.00
2023-04-02T00:25:18.886Z,35.10
2023-04-02T00:25:50.280Z,35.01
2023-04-02T00:26:21.735Z,35.18
2023-04-02T00:26:53.188Z,35.02
2023-04-02T00:27:24.736Z,35.22
2023-04-02T00:27:59.062Z,35.23
2023-04-02T00:28:30.632Z,35.02
2023-04-02T00:29:02.074Z,35.19
2023-04-02T00:29:33.564Z,35.22
2023-04-02T00:30:04.994Z,35.19
2023-04-02T00:30:36.425Z,35.19
2023-04-02T00:31:07.929Z,35.14
2023-04-02T00:31:39.457Z,35.10
2023-04-02T00:32:10.927Z,35.19
2023-04-02T00:32:42.383Z,35.13
2023-04-02T00:33:13.938Z,35.04
2023-04-02T00:33:45.429Z,35.01
2023-04-02T00:34:17.205Z,35.07
2023-04-02T00:34:48.712Z,35.07
2023-04-02T00:35:20.136Z,35.13
2023-04-02T00:35:51.695Z,35.01
2023-04-02T00:36:23.196Z,35.08
2023-04-02T00:36:54.658Z,35.01
2023-04-02T00:37:26.125Z,35.03
2023-04-02T00:37:57.557Z,35.05
2023-04-02T00:38:29.033Z,35.00
2023-04-02T00:39:00.449Z,35.00
2023-04-02T00:39:31.950Z,34.99
2023-04-02T00:40:03.390Z,34.99
2023-04-02T00:40:37.445Z,35.01
2023-04-02T00:41:08.859Z,35.15
2023-04-02T00:41:40.341Z,34.98
2023-04-02T00:42:11.838Z,35.03
2023-04-02T00:42:43.270Z,34.87
2023-04-02T00:43:18.665Z,35.00
2023-04-02T00:43:50.207Z,34.91
2023-04-02T00:44:21.740Z,34.80
2023-04-02T00:44:53.337Z,34.88
2023-04-02T00:45:24.866Z,34.89
2023-04-02T00:45:56.441Z,34.96
2023-04-02T00:46:28.003Z,34.89
2023-04-02T00:46:59.492Z,34.77
2023-04-02T00:47:30.942Z,34.94
2023-04-02T00:48:05.276Z,34.83
2023-04-02T00:48:36.705Z,34.85
2023-04-02T00:49:08.194Z,34.91
2023-04-02T00:49:39.647Z,35.02
2023-04-02T00:50:11.094Z,34.96
2023-04-02T00:50:42.556Z,34.86
2023-04-02T00:51:14.064Z,34.92
2023-04-02T00:51:45.535Z,34.94
2023-04-02T00:52:17.036Z,34.89
2023-04-02T00:52:48.460Z,34.95
2023-04-02T00:53:19.891Z,34.94
2023-04-02T00:53:51.506Z,34.94
2023-04-02T00:54:23.064Z,34.89
2023-04-02T00:54:54.525Z,34.99
2023-04-02T00:55:26.003Z,34.89
2023-04-02T00:55:57.451Z,34.94
2023-04-02T00:56:31.522Z,35.00
2023-04-02T00:57:03.019Z,34.69
2023-04-02T00:57:34.480Z,34.88
2023-04-02T00:58:05.996Z,34.85
2023-04-02T00:58:37.442Z,34.93
2023-04-02T00:59:08.886Z,34.97
2023-04-02T00:59:42.199Z,35.08
2023-04-02T01:00:13.667Z,34.82
2023-04-02T01:00:48.107Z,34.72
2023-04-02T01:01:19.595Z,34.82
2023-04-02T01:01:51.425Z,34.91
2023-04-02T01:02:22.961Z,34.76
2023-04-02T01:02:54.709Z,34.73
2023-04-02T01:03:26.351Z,34.81
2023-04-02T01:03:57.944Z,34.66
2023-04-02T01:04:29.345Z,34.77
2023-04-02T01:05:00.904Z,34.88
2023-04-02T01:05:33.054Z,34.69
2023-04-02T01:06:04.617Z,34.69
2023-04-02T01:06:38.777Z,34.65
2023-04-02T01:07:10.235Z,34.81
2023-04-02T01:07:41.730Z,34.76
2023-04-02T01:08:13.145Z,34.67
2023-04-02T01:08:44.604Z,34.68
2023-04-02T01:09:16.134Z,34.74
2023-04-02T01:09:47.516Z,34.58
2023-04-02T01:10:18.993Z,34.56
2023-04-02T01:10:50.594Z,34.54
2023-04-02T01:11:21.972Z,34.73
2023-04-02T01:11:53.426Z,34.69
2023-04-02T01:12:24.817Z,34.52
2023-04-02T01:12:56.290Z,34.76
2023-04-02T01:13:27.697Z,34.75
2023-04-02T01:13:59.217Z,34.60
2023-04-02T01:14:30.640Z,34.68
2023-04-02T01:15:05.305Z,34.69
2023-04-02T01:15:37.144Z,34.69
2023-04-02T01:16:08.937Z,34.65
2023-04-02T01:16:40.472Z,34.66
2023-04-02T01:17:11.884Z,34.64
2023-04-02T01:17:43.370Z,34.66
2023-04-02T01:18:14.805Z,34.62
2023-04-02T01:18:49.031Z,34.47
2023-04-02T01:19:20.577Z,34.53
2023-04-02T01:19:52.003Z,34.49
2023-04-02T01:20:26.501Z,34.53
2023-04-02T01:20:57.950Z,34.49
2023-04-02T01:21:29.374Z,34.68
2023-04-02T01:22:01.052Z,34.75
2023-04-02T01:22:32.492Z,34.60
2023-04-02T01:23:03.900Z,34.73
2023-04-02T01:23:35.370Z,34.42
2023-04-02T01:24:09.924Z,34.52
2023-04-02T01:24:41.352Z,34.63
2023-04-02T01:25:12.832Z,34.43
2023-04-02T01:25:44.232Z,34.58
2023-04-02T01:26:15.796Z,34.56
2023-04-02T01:26:47.240Z,34.60
2023-04-02T01:27:18.674Z,34.39
2023-04-02T01:27:50.097Z,34.66
2023-04-02T01:28:21.593Z,34.41
2023-04-02T01:28:53.038Z,34.51
2023-04-02T01:29:24.466Z,34.58
2023-04-02T01:29:55.932Z,34.51
2023-04-02T01:30:27.339Z,34.61
2023-04-02T01:31:01.074Z,34.53
2023-04-02T01:31:32.665Z,34.50
2023-04-02T01:32:04.222Z,34.53
2023-04-02T01:32:35.718Z,34.57
2023-04-02T01:33:07.307Z,34.65
2023-04-02T01:33:38.798Z,34.53
2023-04-02T01:34:13.117Z,34.56
2023-04-02T01:34:44.547Z,34.48
2023-04-02T01:35:15.935Z,34.67
2023-04-02T01:35:47.405Z,34.59
2023-04-02T01:36:21.930Z,34.57
2023-04-02T01:36:53.467Z,34.45
2023-04-02T01:37:24.945Z,34.48
2023-04-02T01:37:56.386Z,34.61
2023-04-02T01:38:27.860Z,34.54
2023-04-02T01:38:59.303Z,34.51
2023-04-02T01:39:30.752Z,34.37
2023-04-02T01:40:07.591Z,34.40
2023-04-02T01:40:38.990Z,34.55
2023-04-02T01:41:10.450Z,34.49
2023-04-02T01:41:41.834Z,34.51
2023-04-02T01:42:13.288Z,34.37
2023-04-02T01:42:44.926Z,34.45
2023-04-02T01:43:16.358Z,34.49
2023-04-02T01:43:47.831Z,34.39
2023-04-02T01:44:19.261Z,34.56
2023-04-02T01:44:50.678Z,34.46
2023-04-02T01:45:22.103Z,34.58
2023-04-02T01:45:53.530Z,34.45
2023-04-02T01:46:25.058Z,34.35
2023-04-02T01:46:56.532Z,34.51
2023-04-02T01:47:28.067Z,34.46
2023-04-02T01:47:59.618Z,34.30
2023-04-02T01:48:31.112Z,34.36
2023-04-02T01:49:02.546Z,34.38
2023-04-02T01:49:34.044Z,34.51
2023-04-02T01:50:08.515Z,34.55
2023-04-02T01:50:39.943Z,34.30
2023-04-02T01:51:11.370Z,34.41
2023-04-02T01:51:42.821Z,34.49
2023-04-02T01:52:14.289Z,34.39
2023-04-02T01:52:45.812Z,34.42
2023-04-02T01:53:17.306Z,34.29
2023-04-02T01:53:48.802Z,34.37
2023-04-02T01:54:20.397Z,34.39
2023-04-02T01:54:51.805Z,34.47
2023-04-02T01:55:23.295Z,34.25
2023-04-02T01:55:54.756Z,34.22
2023-04-02T01:56:26.182Z,34.47
2023-04-02T01:56:57.778Z,34.47
2023-04-02T01:57:29.369Z,34.43
2023-04-02T01:58:00.922Z,34.33
2023-04-02T01:58:32.585Z,34.52
2023-04-02T01:59:04.033Z,34.38
2023-04-02T01:59:37.896Z,34.44
2023-04-02T02:00:09.329Z,34.45
2023-04-02T02:00:40.691Z,34.43
2023-04-02T02:01:12.199Z,34.42
2023-04-02T02:01:43.751Z,34.37
2023-04-02T02:02:15.271Z,34.28
2023-04-02T02:02:46.838Z,34.28
2023-04-02T02:03:18.445Z,34.31
2023-04-02T02:03:49.989Z,34.33
2023-04-02T02:04:24.200Z,34.20
2023-04-02T02:04:55.735Z,34.44
2023-04-02T02:05:27.248Z,34.27
2023-04-02T02:05:58.749Z,34.32
2023-04-02T02:06:30.180Z,34.26
2023-04-02T02:07:03.231Z,34.16
2023-04-02T02:07:35.019Z,34.33
2023-04-02T02:08:06.542Z,34.33
2023-04-02T02:08:38.060Z,34.22
2023-04-02T02:09:09.509Z,34.32
2023-04-02T02:09:43.514Z,34.36
2023-04-02T02:10:14.945Z,34.16
2023-04-02T02:10:46.346Z,34.17
2023-04-02T02:11:17.826Z,34.21
2023-04-02T02:11:49.344Z,34.29
2023-04-02T02:12:20.798Z,34.23
2023-04-02T02:12:52.215Z,34.38
2023-04-02T02:13:23.620Z,34.26
2023-04-02T02:13:55.127Z,34.25
2023-04-02T02:14:26.538Z,34.31
2023-04-02T02:14:57.999Z,34.14
2023-04-02T02:15:29.437Z,34.17
2023-04-02T02:16:01.008Z,34.28
2023-04-02T02:16:32.551Z,34.30
2023-04-02T02:17:03.994Z,34.37
2023-04-02T02:17:35.520Z,34.36
2023-04-02T02:18:09.585Z,34.20
2023-04-02T02:18:41.046Z,34.27
2023-04-02T02:19:12.955Z,34.29
2023-04-02T02:19:44.370Z,34.16
2023-04-02T02:20:15.980Z,34.29
2023-04-02T02:20:47.414Z,34.21
2023-04-02T02:21:18.897Z,34.32
2023-04-02T02:21:50.355Z,34.28
2023-04-02T02:22:21.900Z,34.12
2023-04-02T02:22:53.379Z,34.25
2023-04-02T02:23:24.814Z,34.22
2023-04-02T02:23:56.246Z,34.12
2023-04-02T02:24:27.695Z,34.25
2023-04-02T02:24:59.178Z,34.30
2023-04-02T02:25:30.590Z,34.19
2023-04-02T02:26:02.060Z,34.27
2023-04-02T02:26:33.510Z,33.93
2023-04-02T02:27:04.970Z,34.27
2023-04-02T02:27:39.455Z,34.15
2023-04-02T02:28:10.942Z,34.30
2023-04-02T02:28:42.407Z,34.09
2023-04-02T02:29:13.857Z,34.10
2023-04-02T02:29:45.313Z,34.02
2023-04-02T02:30:19.673Z,34.11
2023-04-02T02:30:51.207Z,34.04
2023-04-02T02:31:22.817Z,34.18
2023-04-02T02:31:54.386Z,34.04
2023-04-02T02:32:25.914Z,34.23
2023-04-02T02:32:57.427Z,34.13
2023-04-02T02:33:28.897Z,34.26
2023-04-02T02:34:00.356Z,34.13
2023-04-02T02:34:31.786Z,34.29
2023-04-02T02:35:03.222Z,34.20
2023-04-02T02:35:40.579Z,34.04
2023-04-02T02:36:12.062Z,33.98
2023-04-02T02:36:43.572Z,34.10
2023-04-02T02:37:15.022Z,34.26
2023-04-02T02:37:46.481Z,34.11
2023-04-02T02:38:17.955Z,34.12
2023-04-02T02:38:49.410Z,33.93
2023-04-02T02:39:20.846Z,34.08
2023-04-02T02:39:52.287Z,34.12
2023-04-02T02:40:23.731Z,33.97
2023-04-02T02:40:55.225Z,34.03
2023-04-02T02:41:26.656Z,34.19
2023-04-02T02:41:58.069Z,34.09
2023-04-02T02:42:29.495Z,34.16
2023-04-02T02:43:04.002Z,34.17
2023-04-02T02:43:35.437Z,34.09
2023-04-02T02:44:06.896Z,34.12
2023-04-02T02:44:38.347Z,33.99
2023-04-02T02:45:09.849Z,34.16
2023-04-02T02:45:41.280Z,34.14
2023-04-02T02:46:12.855Z,34.06
2023-04-02T02:46:44.329Z,33.97
2023-04-02T02:47:15.808Z,34.01
2023-04-02T02:47:47.365Z,34.13
2023-04-02T02:48:18.786Z,34.16
2023-04-02T02:48:50.309Z,34.06
2023-04-02T02:49:21.772Z,34.17
2023-04-02T02:49:54.911Z,34.04
2023-04-02T02:50:26.504Z,34.17
2023-04-02T02:50:57.999Z,34.25
2023-04-02T02:51:29.554Z,34.02
2023-04-02T02:52:01.030Z,33.95
2023-04-02T02:52:32.526Z,34.09
2023-04-02T02:53:06.996Z,34.17
2023-04-02T02:53:38.520Z,34.00
2023-04-02T02:54:09.915Z,34.12
2023-04-02T02:54:41.326Z,34.10
2023-04-02T02:55:12.741Z,33.86
2023-04-02T02:55:44.198Z,34.22
2023-04-02T02:56:15.637Z,34.01
2023-04-02T02:56:47.116Z,34.00
2023-04-02T02:57:18.648Z,34.08
2023-04-02T02:57:50.155Z,33.96
2023-04-02T02:58:21.577Z,33.87
2023-04-02T02:58:53.017Z,34.20
2023-04-02T02:59:24.494Z,33.89
2023-04-02T02:59:55.946Z,34.12
2023-04-02T03:00:27.412Z,34.08
2023-04-02T03:00:58.966Z,34.09
2023-04-02T03:01:30.595Z,34.04
2023-04-02T03:02:02.028Z,34.05
2023-04-02T03:02:33.511Z,34.18
2023-04-02T03:03:10.405Z,33.98
2023-04-02T03:03:45.201Z,34.01
2023-04-02T03:04:17.022Z,34.04
2023-04-02T03:04:48.533Z,34.18
2023-04-02T03:05:20.040Z,33.90
2023-04-02T03:05:51.633Z,34.08
2023-04-02T03:06:23.148Z,33.97
2023-04-02T03:06:54.580Z,33.93
2023-04-02T03:07:29.147Z,34.15
2023-04-02T03:08:00.570Z,34.00
2023-04-02T03:08:32.087Z,34.00
2023-04-02T03:09:03.535Z,34.02
2023-04-02T03:09:34.939Z,33.96
2023-04-02T03:10:06.432Z,34.02
2023-04-02T03:10:37.926Z,34.10
2023-04-02T03:11:09.421Z,34.05
2023-04-02T03:11:40.848Z,34.03
2023-04-02T03:12:12.342Z,34.11
2023-04-02T03:12:46.702Z,34.03
2023-04-02T03:13:18.095Z,33.96
2023-04-02T03:13:49.506Z,33.93
2023-04-02T03:14:20.924Z,34.06
2023-04-02T03:14:52.315Z,34.05
2023-04-02T03:15:23.771Z,34.03
2023-04-02T03:15:55.301Z,34.08
2023-04-02T03:16:26.794Z,33.85
2023-04-02T03:16:58.261Z,33.93
2023-04-02T03:17:32.791Z,34.04
2023-04-02T03:18:04.292Z,33.90
2023-04-02T03:18:35.783Z,33.97
2023-04-02T03:19:07.237Z,33.78
2023-04-02T03:19:38.642Z,33.91
2023-04-02T03:20:10.029Z,34.02
2023-04-02T03:20:41.496Z,33.85
2023-04-02T03:21:12.973Z,34.01
2023-04-02T03:21:44.401Z,34.02
2023-04-02T03:22:15.878Z,34.02
2023-04-02T03:22:47.294Z,33.93
2023-04-02T03:23:19.966Z,33.95
2023-04-02T03:23:52.069Z,34.06
2023-04-02T03:24:23.513Z,33.91
2023-04-02T03:24:55.048Z,33.97
2023-04-02T03:25:26.513Z,33.98
2023-04-02T03:25:58.124Z,34.01
2023-04-02T03:26:29.544Z,33.89
2023-04-02T03:27:00.953Z,33.96
2023-04-02T03:27:32.357Z,33.97
2023-04-02T03:28:03.789Z,34.00
2023-04-02T03:28:35.270Z,33.90
2023-04-02T03:29:06.708Z,34.03
2023-04-02T03:29:38.130Z,33.94
2023-04-02T03:30:09.595Z,33.91
2023-04-02T03:30:40.997Z,33.88
2023-04-02T03:31:12.516Z,33.85
2023-04-02T03:31:43.973Z,33.83
2023-04-02T03:32:15.529Z,33.80
2023-04-02T03:32:46.977Z,33.85
2023-04-02T03:33:21.510Z,33.93
2023-04-02T03:33:52.958Z,34.01
2023-04-02T03:34:26.963Z,33.85
2023-04-02T03:34:58.404Z,33.98
2023-04-02T03:35:29.805Z,34.07
2023-04-02T03:36:01.244Z,34.01
2023-04-02T03:36:32.793Z,33.95
2023-04-02T03:37:04.251Z,33.86
2023-04-02T03:37:35.722Z,33.87
2023-04-02T03:38:07.211Z,34.00
2023-04-02T03:38:38.657Z,33.88
2023-04-02T03:39:10.145Z,34.12
2023-04-02T03:39:41.595Z,33.76
2023-04-02T03:40:13.040Z,33.85
2023-04-02T03:40:44.445Z,33.95
2023-04-02T03:41:15.952Z,33.97
2023-04-02T03:41:47.509Z,33.92
2023-04-02T03:42:19.014Z,33.83
2023-04-02T03:42:50.412Z,33.94
2023-04-02T03:43:24.732Z,33.83
2023-04-02T03:43:56.225Z,33.84
2023-04-02T03:44:27.680Z,33.74
2023-04-02T03:44:59.192Z,33.97
2023-04-02T03:45:30.613Z,33.82
2023-04-02T03:46:02.156Z,33.90
2023-04-02T03:46:33.663Z,33.84
2023-04-02T03:47:05.768Z,33.93
2023-04-02T03:47:37.358Z,33.83
2023-04-02T03:48:08.827Z,33.78
2023-04-02T03:48:40.424Z,33.82
2023-04-02T03:49:12.011Z,33.75
2023-04-02T03:49:43.416Z,33.79
2023-04-02T03:50:14.857Z,33.88
2023-04-02T03:50:46.343Z,33.96
2023-04-02T03:51:17.746Z,33.87
2023-04-02T03:51:49.205Z,33.69
2023-04-02T03:52:20.794Z,33.84
2023-04-02T03:52:52.361Z,33.83
2023-04-02T03:53:23.788Z,33.90
2023-04-02T03:53:55.259Z,33.87
2023-04-02T03:54:26.761Z,33.94
2023-04-02T03:54:58.185Z,33.72
2023-04-02T03:55:29.697Z,33.87
2023-04-02T03:56:01.161Z,33.79
2023-04-02T03:56:32.683Z,33.95
2023-04-02T03:57:04.094Z,33.88
2023-04-02T03:57:35.656Z,33.86
2023-04-02T03:58:07.132Z,33.75
2023-04-02T03:58:38.801Z,33.63
2023-04-02T03:59:12.730Z,33.65
2023-04-02T03:59:44.168Z,33.77
2023-04-02T04:00:18.876Z,33.85
2023-04-02T04:00:50.290Z,33.80
2023-04-02T04:01:21.736Z,33.91
2023-04-02T04:01:53.162Z,33.85
2023-04-02T04:02:24.667Z,33.86
2023-04-02T04:02:56.081Z,33.80
2023-04-02T04:03:27.551Z,33.71
2023-04-02T04:03:58.961Z,33.80
2023-04-02T04:04:30.486Z,33.87
2023-04-02T04:05:02.078Z,33.67
2023-04-02T04:05:33.703Z,33.82
2023-04-02T04:06:05.344Z,33.77
2023-04-02T04:06:36.845Z,33.75
2023-04-02T04:07:08.319Z,33.80
2023-04-02T04:07:39.728Z,33.73
2023-04-02T04:08:11.169Z,33.79
2023-04-02T04:08:42.624Z,33.73
2023-04-02T04:09:14.041Z,33.93
2023-04-02T04:09:45.559Z,33.79
2023-04-02T04:10:17.044Z,33.87
2023-04-02T04:10:48.547Z,33.64
2023-04-02T04:11:20.023Z,33.79
2023-04-02T04:11:51.783Z,33.84
2023-04-02T04:12:23.230Z,33.67
2023-04-02T04:12:54.660Z,33.79
2023-04-02T04:13:26.070Z,33.60
2023-04-02T04:13:57.510Z,33.60
2023-04-02T04:14:28.971Z,33.67
2023-04-02T04:15:00.350Z,33.69
2023-04-02T04:15:31.816Z,33.74
2023-04-02T04:16:03.218Z,33.50
2023-04-02T04:16:34.711Z,33.62
2023-04-02T04:17:09.093Z,33.69
2023-04-02T04:17:40.528Z,33.68
2023-04-02T04:18:11.996Z,33.79
2023-04-02T04:18:43.417Z,33.74
2023-04-02T04:19:14.894Z,33.49
2023-04-02T04:19:46.332Z,33.64
2023-04-02T04:20:17.821Z,33.78
2023-04-02T04:20:49.290Z,33.78
2023-04-02T04:21:20.704Z,33.65
2023-04-02T04:21:52.156Z,33.69
2023-04-02T04:22:23.637Z,33.61
2023-04-02T04:22:55.100Z,33.67
2023-04-02T04:23:26.549Z,33.69
2023-04-02T04:23:58.080Z,33.69
2023-04-02T04:24:29.486Z,33.78
2023-04-02T04:25:00.929Z,33.70
2023-04-02T04:25:32.357Z,33.58
2023-04-02T04:26:06.395Z,33.65
2023-04-02T04:26:37.834Z,33.58
2023-04-02T04:27:09.298Z,33.71
2023-04-02T04:27:40.834Z,33.49
2023-04-02T04:28:12.270Z,33.64
2023-04-02T04:28:43.732Z,33.62
2023-04-02T04:29:15.113Z,33.71
2023-04-02T04:29:48.896Z,33.54
2023-04-02T04:30:20.358Z,33.65
2023-04-02T04:30:51.766Z,33.73
2023-04-02T04:31:25.775Z,33.61
2023-04-02T04:31:57.597Z,33.46
2023-04-02T04:32:29.080Z,33.69
2023-04-02T04:33:00.697Z,33.59
2023-04-02T04:33:32.217Z,33.73
2023-04-02T04:34:03.749Z,33.62
2023-04-02T04:34:35.176Z,33.48
2023-04-02T04:35:06.662Z,33.64
2023-04-02T04:35:38.491Z,33.49
2023-04-02T04:36:10.343Z,33.40
2023-04-02T04:36:43.539Z,33.53
2023-04-02T04:37:17.884Z,33.56
2023-04-02T04:37:49.320Z,33.67
2023-04-02T04:38:20.889Z,33.66
2023-04-02T04:38:52.317Z,33.81
2023-04-02T04:39:23.735Z,33.71
2023-04-02T04:39:55.197Z,33.52
2023-04-02T04:40:28.772Z,33.64
2023-04-02T04:41:00.218Z,33.61
2023-04-02T04:41:33.493Z,33.56
2023-04-02T04:42:05.100Z,33.64
2023-04-02T04:42:36.564Z,33.61
2023-04-02T04:43:08.075Z,33.66
2023-04-02T04:43:39.539Z,33.38
2023-04-02T04:44:10.961Z,33.61
2023-04-02T04:44:42.403Z,33.30
2023-04-02T04:45:13.800Z,33.65
2023-04-02T04:45:45.237Z,33.54
2023-04-02T04:46:16.745Z,33.38
2023-04-02T04:46:48.266Z,33.40
2023-04-02T04:47:19.702Z,33.45
2023-04-02T04:47:53.705Z,33.51
2023-04-02T04:48:25.203Z,33.41
2023-04-02T04:48:56.683Z,33.37
2023-04-02T04:49:28.148Z,33.44
2023-04-02T04:49:59.691Z,33.36
2023-04-02T04:50:31.159Z,33.33
2023-04-02T04:51:02.637Z,33.51
2023-04-02T04:51:34.025Z,33.62
2023-04-02T04:52:05.516Z,33.55
2023-04-02T04:52:36.982Z,33.31
2023-04-02T04:53:10.013Z,33.54
2023-04-02T04:53:41.487Z,33.47
2023-04-02T04:54:12.968Z,33.54
2023-04-02T04:54:49.256Z,33.49
2023-04-02T04:55:20.799Z,33.42
2023-04-02T04:55:52.254Z,33.26
2023-04-02T04:56:23.753Z,33.38
2023-04-02T04:56:55.252Z,33.48
2023-04-02T04:57:26.854Z,33.28
2023-04-02T04:57:58.300Z,33.53
2023-04-02T04:58:29.814Z,33.32
2023-04-02T04:59:01.247Z,33.24
2023-04-02T04:59:32.693Z,33.37
2023-04-02T05:00:07.137Z,33.32
2023-04-02T05:00:38.577Z,33.48
2023-04-02T05:01:10.042Z,33.44
2023-04-02T05:01:41.528Z,33.37
2023-04-02T05:02:13.060Z,33.40
2023-04-02T05:02:44.532Z,33.27
2023-04-02T05:03:15.955Z,33.29
2023-04-02T05:03:47.423Z,33.28
2023-04-02T05:04:18.861Z,33.38
2023-04-02T05:04:50.417Z,33.30
2023-04-02T05:05:21.925Z,33.40
2023-04-02T05:05:53.376Z,33.45
2023-04-02T05:06:24.791Z,33.35
2023-04-02T05:06:56.328Z,33.40
2023-04-02T05:07:27.807Z,33.32
2023-04-02T05:07:59.956Z,33.33
2023-04-02T05:08:31.577Z,33.40
2023-04-02T05:09:03.027Z,33.33
2023-04-02T05:09:34.493Z,33.31
2023-04-02T05:10:05.917Z,33.33
2023-04-02T05:10:37.359Z,33.27
2023-04-02T05:11:08.828Z,33.35
2023-04-02T05:11:40.274Z,33.36
2023-04-02T05:12:14.336Z,33.31
2023-04-02T05:12:45.910Z,33.32
2023-04-02T05:13:17.365Z,33.27
2023-04-02T05:13:48.895Z,33.22
2023-04-02T05:14:20.373Z,33.32
2023-04-02T05:14:51.882Z,33.29
2023-04-02T05:15:23.335Z,33.32
2023-04-02T05:15:54.854Z,33.41
2023-04-02T05:16:26.408Z,33.33
2023-04-02T05:16:57.906Z,33.28
2023-04-02T05:17:29.368Z,33.37
2023-04-02T05:18:00.964Z,33.32
2023-04-02T05:18:34.551Z,33.28
2023-04-02T05:19:06.002Z,33.23
2023-04-02T05:19:37.422Z,33.28
2023-04-02T05:20:08.862Z,33.26
2023-04-02T05:20:42.868Z,33.33
2023-04-02T05:21:14.325Z,33.29
2023-04-02T05:21:45.831Z,33.20
2023-04-02T05:22:20.342Z,33.41
2023-04-02T05:22:51.789Z,33.29
2023-04-02T05:23:23.320Z,33.20
2023-04-02T05:23:54.804Z,33.11
2023-04-02T05:24:26.259Z,33.36
2023-04-02T05:24:57.736Z,33.02
2023-04-02T05:25:29.171Z,33.38
2023-04-02T05:26:00.600Z,33.28
2023-04-02T05:26:32.056Z,33.20
2023-04-02T05:27:03.498Z,33.24
2023-04-02T05:27:34.929Z,33.38
2023-04-02T05:28:06.425Z,33.35
2023-04-02T05:28:37.920Z,33.20
2023-04-02T05:29:09.328Z,33.22
2023-04-02T05:29:40.745Z,33.31
2023-04-02T05:30:12.229Z,33.24
2023-04-02T05:30:43.920Z,33.36
2023-04-02T05:31:15.452Z,33.29
2023-04-02T05:31:46.984Z,33.24
2023-04-02T05:32:18.417Z,33.27
2023-04-02T05:32:49.904Z,33.22
2023-04-02T05:33:21.532Z,33.33
2023-04-02T05:33:54.879Z,33.23
2023-04-02T05:34:26.257Z,33.16
2023-04-02T05:34:57.748Z,33.17
2023-04-02T05:35:29.236Z,33.22
2023-04-02T05:36:00.767Z,33.22
2023-04-02T05:36:32.235Z,33.11
2023-04-02T05:37:05.782Z,33.20
2023-04-02T05:37:38.420Z,33.06
2023-04-02T05:38:09.988Z,33.15
2023-04-02T05:38:41.371Z,33.18
2023-04-02T05:39:12.881Z,33.15
2023-04-02T05:39:44.461Z,33.21
2023-04-02T05:40:15.942Z,33.30
2023-04-02T05:40:47.428Z,33.17
2023-04-02T05:41:18.914Z,33.22
2023-04-02T05:41:50.430Z,33.29
2023-04-02T05:42:21.867Z,33.09
2023-04-02T05:42:58.479Z,33.19
2023-04-02T05:43:29.885Z,33.03
2023-04-02T05:44:01.301Z,33.03
2023-04-02T05:44:36.347Z,33.10
2023-04-02T05:45:09.371Z,33.01
2023-04-02T05:45:40.832Z,33.22
2023-04-02T05:46:12.284Z,33.12
2023-04-02T05:46:43.852Z,33.19
2023-04-02T05:47:15.332Z,33.19
2023-04-02T05:47:46.800Z,33.08
2023-04-02T05:48:18.287Z,33.23
2023-04-02T05:48:49.696Z,33.23
2023-04-02T05:49:21.121Z,33.03
2023-04-02T05:49:52.716Z,33.21
2023-04-02T05:50:24.215Z,33.09
2023-04-02T05:50:55.785Z,33.04
2023-04-02T05:51:27.228Z,33.08
2023-04-02T05:52:00.895Z,33.03
2023-04-02T05:52:32.418Z,33.14
2023-04-02T05:53:06.840Z,33.15
2023-04-02T05:53:38.308Z,33.18
2023-04-02T05:54:09.738Z,33.19
2023-04-02T05:54:41.167Z,33.11
2023-04-02T05:55:15.228Z,33.10
2023-04-02T05:55:46.620Z,33.11
2023-04-02T05:56:17.987Z,33.08
2023-04-02T05:56:49.432Z,33.14
2023-04-02T05:57:23.200Z,33.09
2023-04-02T05:58:21.182Z,33.21
2023-04-02T05:58:52.676Z,33.21
2023-04-02T05:59:24.129Z,33.20
2023-04-02T05:59:55.564Z,33.17
2023-04-02T06:00:27.041Z,33.21
2023-04-02T06:00:58.496Z,33.09
2023-04-02T06:01:29.982Z,33.04
2023-04-02T06:02:01.481Z,33.06
2023-04-02T06:02:33.096Z,33.10
2023-04-02T06:03:04.748Z,33.16
2023-04-02T06:03:40.721Z,33.17
2023-04-02T06:04:12.272Z,33.05
2023-04-02T06:04:43.745Z,32.92
2023-04-02T06:05:16.791Z,32.92
2023-04-02T06:05:48.309Z,33.20
2023-04-02T06:06:19.780Z,33.21
2023-04-02T06:06:51.278Z,33.09
2023-04-02T06:07:24.330Z,32.97
2023-04-02T06:07:55.867Z,32.95
2023-04-02T06:08:27.466Z,33.01
2023-04-02T06:08:58.971Z,33.03
2023-04-02T06:09:30.478Z,33.04
2023-04-02T06:10:01.927Z,32.86
2023-04-02T06:10:33.428Z,33.04
2023-04-02T06:11:04.891Z,33.04
2023-04-02T06:11:36.382Z,33.06
2023-04-02T06:12:07.780Z,33.07
2023-04-02T06:12:39.238Z,33.06
2023-04-02T06:13:10.736Z,33.08
2023-04-02T06:13:42.756Z,33.05
2023-04-02T06:14:14.176Z,33.03
2023-04-02T06:14:45.658Z,33.06
2023-04-02T06:15:17.145Z,32.96
2023-04-02T06:15:48.545Z,32.92
2023-04-02T06:16:20.047Z,33.05
2023-04-02T06:16:51.730Z,32.85
2023-04-02T06:17:23.305Z,32.88
2023-04-02T06:17:56.046Z,33.01
2023-04-02T06:18:27.516Z,33.02
2023-04-02T06:18:59.017Z,32.99
2023-04-02T06:19:30.442Z,33.04
2023-04-02T06:20:02.040Z,32.99
2023-04-02T06:20:33.500Z,32.96
2023-04-02T06:21:04.979Z,32.98
2023-04-02T06:21:36.433Z,32.96
2023-04-02T06:22:07.923Z,32.96
2023-04-02T06:22:43.675Z,33.02
2023-04-02T06:23:15.202Z,32.95
2023-04-02T06:23:49.249Z,32.97
2023-04-02T06:24:20.759Z,33.09
2023-04-02T06:24:52.273Z,32.95
2023-04-02T06:25:23.723Z,32.94
2023-04-02T06:25:55.168Z,32.95
2023-04-02T06:26:26.565Z,32.86
2023-04-02T06:26:58.020Z,32.99
2023-04-02T06:27:29.429Z,32.96
2023-04-02T06:28:00.839Z,32.89
2023-04-02T06:28:32.281Z,32.90
2023-04-02T06:29:03.721Z,32.93
2023-04-02T06:29:35.176Z,32.92
2023-04-02T06:30:06.671Z,32.86
2023-04-02T06:30:38.136Z,32.97
2023-04-02T06:31:09.644Z,33.04
2023-04-02T06:31:41.142Z,32.88
2023-04-02T06:32:12.620Z,32.87
2023-04-02T06:32:44.122Z,32.87
2023-04-02T06:33:15.643Z,32.90
2023-04-02T06:33:47.287Z,32.99
2023-04-02T06:34:18.746Z,33.03
2023-04-02T06:34:50.254Z,33.02
2023-04-02T06:35:29.029Z,33.04
2023-04-02T06:36:00.560Z,32.96
2023-04-02T06:36:32.026Z,32.89
2023-04-02T06:37:03.468Z,32.85
2023-04-02T06:37:37.715Z,32.86
2023-04-02T06:38:09.203Z,32.83
2023-04-02T06:38:40.705Z,32.80
2023-04-02T06:39:12.152Z,32.99
2023-04-02T06:39:43.568Z,32.72
2023-04-02T06:40:15.000Z,32.89
2023-04-02T06:40:46.442Z,32.85
2023-04-02T06:41:17.921Z,32.91
2023-04-02T06:41:49.345Z,32.89
2023-04-02T06:42:20.777Z,32.93
2023-04-02T06:42:52.190Z,32.91
2023-04-02T06:43:23.632Z,32.75
2023-04-02T06:43:55.158Z,32.88
2023-04-02T06:44:26.580Z,32.86
2023-04-02T06:44:57.976Z,32.94
2023-04-02T06:45:29.394Z,32.90
2023-04-02T06:46:00.851Z,32.84
2023-04-02T06:46:32.416Z,32.75
2023-04-02T06:47:09.017Z,32.75
2023-04-02T06:47:40.430Z,32.93
2023-04-02T06:48:11.922Z,33.03
2023-04-02T06:48:43.534Z,32.94
2023-04-02T06:49:14.994Z,32.74
2023-04-02T06:49:48.285Z,32.92